Time;durP1;ratioP1;P1;durP2;ratioP2;P2;SDS_P1;SDS_P2;PMS_P1;PMS_P2;Temp;Humidity;BMP_temperature;BMP_pressure;BME280_temperature;BME280_humidity;BME280_pressure;Samples;Min_cycle;Max_cycle;Signal;HPM_P1;HPM_P2
2021/06/22 00:01:05;;;;;;;;;;;17.20;99.90;;;;;;6197003;23;20352;-76
2021/06/22 00:03:33;;;;;;;;;;;17.20;99.90;;;;;;6196921;22;20241;-76
2021/06/22 00:06:00;;;;;;;;;;;17.20;99.90;;;;;;6196717;23;20323;-75
2021/06/22 00:08:28;;;;;;;;;;;17.20;99.90;;;;;;6196879;23;19927;-75
2021/06/22 00:11:00;;;;;;;;;;;17.10;99.90;;;;;;6221680;23;19920;-75
2021/06/22 00:13:27;;;;;;;;;;;17.00;99.90;;;;;;6196735;22;19920;-76
2021/06/22 00:15:59;;;;;;;;;;;17.00;99.90;;;;;;6197795;23;19975;-77
2021/06/22 00:18:31;;;;;;;;;;;17.00;99.90;;;;;;6197856;23;20300;-75
2021/06/22 00:21:03;;;;;;;;;;;16.90;99.90;;;;;;6198074;23;19920;-76
2021/06/22 00:23:31;;;;;;;;;;;16.90;99.90;;;;;;6221474;22;19919;-75
2021/06/22 00:25:59;;;;;;;;;;;16.80;99.90;;;;;;6248324;23;19920;-75
2021/06/22 00:28:31;;;;;;;;;;;16.80;99.90;;;;;;6221388;23;20344;-75
2021/06/22 00:30:58;;;;;;;;;;;16.80;99.90;;;;;;6221599;23;20399;-76
2021/06/22 00:33:25;;;;;;;;;;;16.70;99.90;;;;;;6221652;22;19923;-76
2021/06/22 00:35:57;;;;;;;;;;;16.70;99.90;;;;;;6192650;23;19927;-76
2021/06/22 00:38:29;;;;;;;;;;;16.60;99.90;;;;;;6216740;23;19919;-76
2021/06/22 00:41:01;;;;;;;;;;;16.60;99.90;;;;;;6216337;23;20003;-76
2021/06/22 00:43:37;;;;;;;;;;;16.60;99.90;;;;;;6217738;23;19927;-76
2021/06/22 00:46:05;;;;;;;;;;;16.70;99.90;;;;;;6192050;23;19926;-76
2021/06/22 00:48:32;;;;;;;;;;;16.70;99.90;;;;;;6191318;23;19947;-75
2021/06/22 00:51:00;;;;;;;;;;;16.70;99.90;;;;;;6216222;23;19970;-76
2021/06/22 00:53:34;;;;;;;;;;;16.70;99.90;;;;;;6192125;23;19920;-76
2021/06/22 00:56:01;;;;;;;;;;;16.80;99.90;;;;;;6191141;23;19920;-76
2021/06/22 00:58:36;;;;;;;;;;;16.80;99.90;;;;;;6192889;23;19943;-77
2021/06/22 01:01:03;;;;;;;;;;;16.80;99.90;;;;;;6191215;23;19978;-75
2021/06/22 01:03:31;;;;;;;;;;;16.80;99.90;;;;;;6191596;23;19920;-76
2021/06/22 01:06:04;;;;;;;;;;;16.70;99.90;;;;;;6192460;23;19974;-75
2021/06/22 01:08:34;;;;;;;;;;;16.70;99.90;;;;;;6216397;23;19920;-76
2021/06/22 01:11:07;;;;;;;;;;;16.70;99.90;;;;;;6192786;23;19920;-75
2021/06/22 01:16:40;;;;;;;;;;;16.70;99.90;;;;;;6236447;22;19994;-77
2021/06/22 01:19:08;;;;;;;;;;;16.60;99.90;;;;;;6220890;23;19919;-76
2021/06/22 01:22:09;;;;;;;;;;;16.60;99.90;;;;;;6218962;23;19919;-76
2021/06/22 01:24:43;;;;;;;;;;;16.70;99.90;;;;;;6191466;23;19919;-76
2021/06/22 01:27:13;;;;;;;;;;;16.80;99.90;;;;;;6216395;23;19943;-75
2021/06/22 01:29:41;;;;;;;;;;;16.80;99.90;;;;;;6216631;23;20395;-76
2021/06/22 01:32:08;;;;;;;;;;;16.90;99.90;;;;;;6190804;23;19970;-75
2021/06/22 01:34:42;;;;;;;;;;;16.90;99.90;;;;;;6216315;23;19927;-75
2021/06/22 01:37:15;;;;;;;;;;;16.90;99.90;;;;;;6216188;23;19920;-75
2021/06/22 01:39:50;;;;;;;;;;;17.00;99.90;;;;;;6168143;23;19970;-76
2021/06/22 01:42:19;;;;;;;;;;;17.00;99.90;;;;;;6191117;23;19930;-75
2021/06/22 01:44:53;;;;;;;;;;;17.10;99.90;;;;;;6167484;23;19919;-76
2021/06/22 01:47:21;;;;;;;;;;;17.10;99.90;;;;;;6192076;23;19924;-76
2021/06/22 01:50:02;;;;;;;;;;;17.00;99.90;;;;;;6191807;23;19920;-76
2021/06/22 01:52:33;;;;;;;;;;;17.00;99.90;;;;;;6216405;23;19920;-76
2021/06/22 01:55:34;;;;;;;;;;;17.10;99.90;;;;;;6166417;23;19927;-75
2021/06/22 01:57:48;;;;;;;;;;;17.10;99.90;;;;;;6190981;23;19974;-77
2021/06/22 02:00:41;;;;;;;;;;;17.10;99.90;;;;;;6196521;23;19948;-76
2021/06/22 02:03:18;;;;;;;;;;;17.10;99.90;;;;;;6191130;23;19920;-76
2021/06/22 02:05:46;;;;;;;;;;;17.00;99.90;;;;;;6191495;23;20002;-76
2021/06/22 02:08:17;;;;;;;;;;;17.00;99.90;;;;;;6191035;23;19943;-75
2021/06/22 02:10:45;;;;;;;;;;;17.00;99.90;;;;;;6190960;23;19927;-75
2021/06/22 02:13:30;;;;;;;;;;;17.10;99.90;;;;;;6191492;23;19920;-76
2021/06/22 02:16:09;;;;;;;;;;;17.10;99.90;;;;;;6210941;23;19920;-76
2021/06/22 02:18:37;;;;;;;;;;;17.10;99.90;;;;;;6186498;23;19928;-76
2021/06/22 02:21:06;;;;;;;;;;;17.20;99.90;;;;;;6186794;23;20412;-76
2021/06/22 02:23:34;;;;;;;;;;;17.10;99.90;;;;;;6186027;23;19920;-77
2021/06/22 02:26:01;;;;;;;;;;;17.20;99.90;;;;;;6186468;23;19920;-76
2021/06/22 02:28:29;;;;;;;;;;;17.20;99.90;;;;;;6187556;23;19920;-75
2021/06/22 02:31:04;;;;;;;;;;;17.10;99.90;;;;;;6163705;23;20392;-76
2021/06/22 02:33:33;;;;;;;;;;;17.10;99.90;;;;;;6186281;23;19944;-76
2021/06/22 02:36:04;;;;;;;;;;;17.10;99.90;;;;;;6211128;23;19943;-76
2021/06/22 02:38:38;;;;;;;;;;;17.10;99.90;;;;;;6186512;23;19924;-75
2021/06/22 02:41:07;;;;;;;;;;;17.10;99.90;;;;;;6161851;23;19970;-76
2021/06/22 02:43:37;;;;;;;;;;;17.10;99.90;;;;;;6186717;23;19924;-76
2021/06/22 02:46:09;;;;;;;;;;;17.20;99.90;;;;;;6186634;23;19975;-76
2021/06/22 02:48:39;;;;;;;;;;;17.20;99.90;;;;;;6185949;23;19924;-75
2021/06/22 02:51:09;;;;;;;;;;;17.20;99.90;;;;;;6185648;23;20018;-76
2021/06/22 02:53:45;;;;;;;;;;;17.10;99.90;;;;;;6210972;23;19920;-75
2021/06/22 02:56:13;;;;;;;;;;;17.10;99.90;;;;;;6186258;23;20091;-76
2021/06/22 02:58:46;;;;;;;;;;;17.10;99.90;;;;;;6185858;23;20289;-75
2021/06/22 03:01:19;;;;;;;;;;;17.10;99.90;;;;;;6187642;23;19926;-76
2021/06/22 03:03:47;;;;;;;;;;;17.20;99.90;;;;;;6186132;23;19999;-76
2021/06/22 03:06:17;;;;;;;;;;;17.20;99.90;;;;;;6162445;23;20234;-76
2021/06/22 03:08:52;;;;;;;;;;;17.20;99.90;;;;;;6186311;23;20257;-76
2021/06/22 03:11:21;;;;;;;;;;;17.20;99.90;;;;;;6186525;23;19920;-76
2021/06/22 03:13:52;;;;;;;;;;;17.20;99.90;;;;;;6186067;23;20345;-75
2021/06/22 03:16:32;;;;;;;;;;;17.20;99.90;;;;;;6186961;23;19928;-76
2021/06/22 03:19:01;;;;;;;;;;;17.30;99.90;;;;;;6214826;23;19920;-75
2021/06/22 03:21:44;;;;;;;;;;;17.30;99.90;;;;;;6189731;23;19920;-76
2021/06/22 03:24:13;;;;;;;;;;;17.30;99.90;;;;;;6214622;23;19920;-76
2021/06/22 03:26:41;;;;;;;;;;;17.30;99.90;;;;;;6189832;23;19923;-76
2021/06/22 03:29:09;;;;;;;;;;;17.20;99.90;;;;;;6164757;23;19924;-76
2021/06/22 03:31:52;;;;;;;;;;;17.20;99.90;;;;;;6193088;23;19920;-76
2021/06/22 03:34:19;;;;;;;;;;;17.10;99.90;;;;;;6214544;23;19920;-76
2021/06/22 03:36:47;;;;;;;;;;;17.20;99.90;;;;;;6189224;23;19971;-79
2021/06/22 03:39:14;;;;;;;;;;;17.20;99.90;;;;;;6212439;23;19921;-78
2021/06/22 03:41:46;;;;;;;;;;;17.20;99.90;;;;;;6211688;23;19955;-75
2021/06/22 03:44:14;;;;;;;;;;;17.20;99.90;;;;;;6187077;23;19936;-76
2021/06/22 03:46:59;;;;;;;;;;;17.20;99.90;;;;;;6187092;23;20333;-76
2021/06/22 03:49:26;;;;;;;;;;;17.20;99.90;;;;;;6186998;23;19926;-76
2021/06/22 03:51:58;;;;;;;;;;;17.20;99.90;;;;;;6186742;23;19929;-76
2021/06/22 03:54:28;;;;;;;;;;;17.30;99.90;;;;;;6186628;23;19928;-76
2021/06/22 03:56:56;;;;;;;;;;;17.30;99.90;;;;;;6211656;23;19921;-76
2021/06/22 03:59:32;;;;;;;;;;;17.30;99.90;;;;;;6186420;23;20030;-76
2021/06/22 04:02:04;;;;;;;;;;;17.30;99.90;;;;;;6186520;23;19924;-76
2021/06/22 04:04:31;;;;;;;;;;;17.20;99.90;;;;;;6186870;23;20261;-76
2021/06/22 04:07:13;;;;;;;;;;;17.30;99.90;;;;;;6212232;23;19941;-76
2021/06/22 04:09:45;;;;;;;;;;;17.30;99.90;;;;;;6186767;23;20230;-76
2021/06/22 04:12:16;;;;;;;;;;;17.30;99.90;;;;;;6188442;23;20341;-77
2021/06/22 04:14:43;;;;;;;;;;;17.30;99.90;;;;;;6186375;23;20296;-76
2021/06/22 04:17:10;;;;;;;;;;;17.30;99.90;;;;;;6211734;23;19952;-76
2021/06/22 04:19:42;;;;;;;;;;;17.20;99.90;;;;;;6210688;23;20293;-76
2021/06/22 04:22:09;;;;;;;;;;;17.20;99.90;;;;;;6184710;23;20019;-76
2021/06/22 04:24:42;;;;;;;;;;;17.20;99.90;;;;;;6185682;23;19930;-76
2021/06/22 04:27:09;;;;;;;;;;;17.10;99.90;;;;;;6211589;23;19974;-76
2021/06/22 04:29:36;;;;;;;;;;;17.10;99.90;;;;;;6209555;23;19920;-76
2021/06/22 04:32:08;;;;;;;;;;;17.10;99.90;;;;;;6186426;23;19928;-76
2021/06/22 04:34:34;;;;;;;;;;;17.10;99.90;;;;;;6185301;23;19958;-76
2021/06/22 04:37:06;;;;;;;;;;;17.20;99.90;;;;;;6184720;23;20011;-76
2021/06/22 04:39:33;;;;;;;;;;;17.30;99.90;;;;;;6184881;23;20370;-76
2021/06/22 04:41:59;;;;;;;;;;;17.40;99.90;;;;;;6185279;23;20297;-76
2021/06/22 04:44:26;;;;;;;;;;;17.40;99.90;;;;;;6210438;23;19967;-75
2021/06/22 04:46:57;;;;;;;;;;;17.40;99.90;;;;;;6185540;23;19955;-75
2021/06/22 04:49:24;;;;;;;;;;;17.50;99.90;;;;;;6185240;23;19920;-76
2021/06/22 04:51:51;;;;;;;;;;;17.50;99.90;;;;;;6184764;23;20003;-76
2021/06/22 04:54:24;;;;;;;;;;;17.60;99.90;;;;;;6185138;23;19963;-75
2021/06/22 04:56:51;;;;;;;;;;;17.60;99.90;;;;;;6185193;23;20007;-75
2021/06/22 04:59:23;;;;;;;;;;;17.60;99.90;;;;;;6210464;23;19920;-77
2021/06/22 05:01:49;;;;;;;;;;;17.60;99.90;;;;;;6185153;23;19951;-76
2021/06/22 05:04:19;;;;;;;;;;;17.60;99.90;;;;;;6209946;23;19920;-76
2021/06/22 05:06:46;;;;;;;;;;;17.50;99.90;;;;;;6185477;23;19955;-76
2021/06/22 05:09:18;;;;;;;;;;;17.50;99.90;;;;;;6210024;23;19924;-76
2021/06/22 05:11:45;;;;;;;;;;;17.50;99.90;;;;;;6185234;23;20404;-75
2021/06/22 05:14:12;;;;;;;;;;;17.60;99.90;;;;;;6185624;23;19920;-75
2021/06/22 05:16:39;;;;;;;;;;;17.60;99.90;;;;;;6210129;23;19924;-76
2021/06/22 05:19:11;;;;;;;;;;;17.60;99.90;;;;;;6209334;23;19952;-77
2021/06/22 05:21:37;;;;;;;;;;;17.70;99.90;;;;;;6185942;23;20322;-76
2021/06/22 05:24:10;;;;;;;;;;;17.70;99.90;;;;;;6186128;23;20321;-78
2021/06/22 05:26:36;;;;;;;;;;;17.70;99.90;;;;;;6185476;23;19924;-76
2021/06/22 05:29:11;;;;;;;;;;;17.80;99.90;;;;;;6209251;23;19925;-76
2021/06/22 05:31:42;;;;;;;;;;;17.80;99.90;;;;;;6185037;23;19954;-76
2021/06/22 05:34:09;;;;;;;;;;;17.90;99.90;;;;;;6183648;23;20003;-76
2021/06/22 05:36:36;;;;;;;;;;;17.90;99.90;;;;;;6184261;23;19943;-77
2021/06/22 05:39:03;;;;;;;;;;;18.00;99.90;;;;;;6184214;23;19956;-76
2021/06/22 05:41:35;;;;;;;;;;;18.00;99.90;;;;;;6208410;23;19921;-76
2021/06/22 05:44:01;;;;;;;;;;;18.10;99.90;;;;;;6183526;23;19955;-76
2021/06/22 05:46:28;;;;;;;;;;;18.10;99.90;;;;;;6184323;23;20014;-75
2021/06/22 05:48:55;;;;;;;;;;;18.20;99.90;;;;;;6184443;23;19920;-76
2021/06/22 05:51:21;;;;;;;;;;;18.20;99.90;;;;;;6183754;23;19972;-76
2021/06/22 05:53:48;;;;;;;;;;;18.20;99.90;;;;;;6209244;23;19925;-75
2021/06/22 05:56:15;;;;;;;;;;;18.30;99.90;;;;;;6185854;23;19956;-76
2021/06/22 05:58:41;;;;;;;;;;;18.40;99.90;;;;;;6184005;23;19971;-76
2021/06/22 06:01:08;;;;;;;;;;;18.40;99.90;;;;;;6184116;23;19928;-75
2021/06/22 06:03:35;;;;;;;;;;;18.40;99.90;;;;;;6185878;23;19920;-75
2021/06/22 06:06:07;;;;;;;;;;;18.40;99.90;;;;;;6184222;23;20355;-75
2021/06/22 06:08:33;;;;;;;;;;;18.50;99.90;;;;;;6184308;23;19920;-76
2021/06/22 06:11:01;;;;;;;;;;;18.60;99.90;;;;;;6208634;23;19920;-78
2021/06/22 06:13:35;;;;;;;;;;;18.70;99.90;;;;;;6208704;23;19995;-76
2021/06/22 06:16:05;;;;;;;;;;;18.70;99.90;;;;;;6183158;23;20380;-76
2021/06/22 06:18:32;;;;;;;;;;;18.80;99.90;;;;;;6208886;23;19991;-76
2021/06/22 06:21:03;;;;;;;;;;;18.90;99.90;;;;;;6184055;23;19975;-76
2021/06/22 06:23:39;;;;;;;;;;;18.90;99.90;;;;;;6184542;23;19943;-76
2021/06/22 06:26:14;;;;;;;;;;;18.90;99.90;;;;;;6186065;23;20316;-76
2021/06/22 06:28:51;;;;;;;;;;;19.00;99.90;;;;;;6209091;23;19979;-76
2021/06/22 06:31:18;;;;;;;;;;;19.00;99.90;;;;;;6209234;23;19920;-76
2021/06/22 06:33:45;;;;;;;;;;;19.00;99.90;;;;;;6186037;23;19927;-79
2021/06/22 06:36:12;;;;;;;;;;;19.00;99.90;;;;;;6184289;23;19967;-76
2021/06/22 06:38:38;;;;;;;;;;;19.00;99.90;;;;;;6209527;23;19931;-76
2021/06/22 06:41:05;;;;;;;;;;;19.10;99.90;;;;;;6184259;23;20351;-77
2021/06/22 06:43:37;;;;;;;;;;;19.10;99.90;;;;;;6160906;23;19994;-76
2021/06/22 06:46:04;;;;;;;;;;;19.20;99.90;;;;;;6209468;23;19928;-77
2021/06/22 06:48:32;;;;;;;;;;;19.20;99.90;;;;;;6184890;23;19920;-76
2021/06/22 06:50:59;;;;;;;;;;;19.30;99.90;;;;;;6184130;23;19928;-76
2021/06/22 06:53:26;;;;;;;;;;;19.40;99.90;;;;;;6209588;23;19967;-75
2021/06/22 06:55:52;;;;;;;;;;;19.40;99.90;;;;;;6209239;23;19970;-79
2021/06/22 06:58:19;;;;;;;;;;;19.40;99.90;;;;;;6184688;23;19969;-77
2021/06/22 07:00:46;;;;;;;;;;;19.50;99.90;;;;;;6184197;23;20261;-78
2021/06/22 07:03:13;;;;;;;;;;;19.50;99.90;;;;;;6183899;23;20257;-78
2021/06/22 07:05:40;;;;;;;;;;;19.60;99.90;;;;;;6183895;23;19931;-79
2021/06/22 07:08:08;;;;;;;;;;;19.60;99.90;;;;;;6184335;23;20012;-78
2021/06/22 07:10:35;;;;;;;;;;;19.60;99.90;;;;;;6184122;23;20338;-78
2021/06/22 07:13:14;;;;;;;;;;;19.70;99.90;;;;;;6207862;23;19958;-79
2021/06/22 07:15:46;;;;;;;;;;;19.70;99.90;;;;;;6188265;23;19920;-78
2021/06/22 07:18:18;;;;;;;;;;;19.80;99.90;;;;;;6187750;23;19924;-78
2021/06/22 07:20:50;;;;;;;;;;;19.90;99.90;;;;;;6211354;23;19924;-78
2021/06/22 07:23:21;;;;;;;;;;;19.90;99.90;;;;;;6211820;23;19951;-78
2021/06/22 07:25:48;;;;;;;;;;;19.90;99.90;;;;;;6212438;23;19948;-77
2021/06/22 07:28:15;;;;;;;;;;;20.00;99.90;;;;;;6186924;23;20257;-78
2021/06/22 07:30:47;;;;;;;;;;;20.00;99.90;;;;;;6184369;23;19930;-77
2021/06/22 07:33:14;;;;;;;;;;;20.00;99.90;;;;;;6185654;23;19924;-78
2021/06/22 07:35:42;;;;;;;;;;;20.00;99.90;;;;;;6186974;23;19946;-78
2021/06/22 07:38:08;;;;;;;;;;;20.00;99.90;;;;;;6212502;23;19943;-78
2021/06/22 07:40:36;;;;;;;;;;;20.10;99.90;;;;;;6187739;23;19920;-78
2021/06/22 07:43:02;;;;;;;;;;;20.10;99.90;;;;;;6211476;23;19924;-77
2021/06/22 07:45:30;;;;;;;;;;;20.20;99.90;;;;;;6211896;23;19958;-77
2021/06/22 07:47:57;;;;;;;;;;;20.30;99.90;;;;;;6186965;23;19924;-77
2021/06/22 07:50:28;;;;;;;;;;;20.30;99.90;;;;;;6186795;23;19939;-77
2021/06/22 07:53:02;;;;;;;;;;;20.30;99.90;;;;;;6186408;23;19994;-77
2021/06/22 07:55:33;;;;;;;;;;;20.40;99.90;;;;;;6186209;23;19947;-77
2021/06/22 07:58:00;;;;;;;;;;;20.40;99.90;;;;;;6186413;23;20006;-77
2021/06/22 08:03:09;;;;;;;;;;;20.50;99.90;;;;;;6186392;23;20003;-77
2021/06/22 08:05:36;;;;;;;;;;;20.50;99.90;;;;;;6213433;23;19923;-77
2021/06/22 08:08:09;;;;;;;;;;;20.50;99.90;;;;;;6213079;23;19920;-77
2021/06/22 08:10:40;;;;;;;;;;;20.50;99.90;;;;;;6213127;23;20023;-77
2021/06/22 08:13:07;;;;;;;;;;;20.60;99.90;;;;;;6186318;23;20368;-77
2021/06/22 08:18:04;;;;;;;;;;;20.60;99.90;;;;;;5142052;27;19913;-77
2021/06/22 08:20:31;;;;;;;;;;;20.90;99.90;;;;;;5107392;28;19967;-77
2021/06/22 08:23:03;;;;;;;;;;;21.10;99.90;;;;;;5127964;27;19959;-77
2021/06/22 08:25:29;;;;;;;;;;;21.30;99.90;;;;;;5127495;27;20015;-77
2021/06/22 08:28:02;;;;;;;;;;;21.40;99.90;;;;;;5091594;28;20297;-77
2021/06/22 08:30:34;;;;;;;;;;;21.40;99.90;;;;;;5125861;27;19930;-77
2021/06/22 08:33:02;;;;;;;;;;;21.60;99.90;;;;;;5106954;28;19928;-77
2021/06/22 08:35:36;;;;;;;;;;;21.70;99.90;;;;;;5105129;28;19928;-77
2021/06/22 08:38:09;;;;;;;;;;;21.80;99.90;;;;;;5071351;28;19925;-77
2021/06/22 08:40:41;;;;;;;;;;;21.90;99.90;;;;;;5087467;28;20027;-77
2021/06/22 08:43:10;;;;;;;;;;;21.90;99.90;;;;;;5070103;28;20019;-77
2021/06/22 08:45:38;;;;;;;;;;;21.80;99.90;;;;;;5086975;28;19925;-77
2021/06/22 08:48:05;;;;;;;;;;;21.70;99.90;;;;;;5086968;28;19960;-77
2021/06/22 08:50:33;;;;;;;;;;;21.60;99.90;;;;;;5087255;28;19924;-77
2021/06/22 08:52:59;;;;;;;;;;;21.50;99.90;;;;;;5107434;28;20026;-77
2021/06/22 08:55:30;;;;;;;;;;;21.60;99.90;;;;;;5107722;28;20015;-77
2021/06/22 08:57:58;;;;;;;;;;;21.60;99.90;;;;;;5107846;28;19963;-77
2021/06/22 09:00:29;;;;;;;;;;;21.70;99.90;;;;;;5106230;28;20027;-78
2021/06/22 09:02:59;;;;;;;;;;;21.80;99.90;;;;;;5107702;28;20569;-78
2021/06/22 09:05:31;;;;;;;;;;;21.90;99.90;;;;;;5091828;28;19924;-77
2021/06/22 09:07:57;;;;;;;;;;;22.20;99.90;;;;;;5091179;28;19959;-77
2021/06/22 09:10:24;;;;;;;;;;;22.30;99.90;;;;;;5109072;28;20402;-77
2021/06/22 09:12:51;;;;;;;;;;;22.30;99.90;;;;;;5090768;28;19977;-77
2021/06/22 09:15:20;;;;;;;;;;;22.40;99.90;;;;;;5124773;27;19927;-77
2021/06/22 09:17:48;;;;;;;;;;;22.70;99.90;;;;;;5107749;28;19924;-77
2021/06/22 09:20:37;;;;;;;;;;;22.90;99.90;;;;;;5124051;28;20022;-77
2021/06/22 09:23:04;;;;;;;;;;;23.10;99.90;;;;;;5083676;28;19983;-77
2021/06/22 09:25:33;;;;;;;;;;;23.30;99.90;;;;;;5084737;28;20413;-77
2021/06/22 09:28:04;;;;;;;;;;;23.20;99.90;;;;;;5065399;28;19930;-77
2021/06/22 09:30:36;;;;;;;;;;;23.20;99.90;;;;;;5073700;28;20420;-77
2021/06/22 09:33:12;;;;;;;;;;;23.10;99.90;;;;;;5073016;28;20035;-77
2021/06/22 09:35:38;;;;;;;;;;;23.10;99.90;;;;;;5056296;28;20023;-77
2021/06/22 09:38:11;;;;;;;;;;;23.20;99.90;;;;;;5089407;28;20298;-77
2021/06/22 09:40:38;;;;;;;;;;;23.10;99.90;;;;;;5107359;28;20379;-78
2021/06/22 09:43:05;;;;;;;;;;;23.10;99.90;;;;;;5056330;28;20370;-77
2021/06/22 09:45:40;;;;;;;;;;;23.00;99.90;;;;;;5073371;28;19924;-77
2021/06/22 09:48:11;;;;;;;;;;;23.00;99.90;;;;;;5089155;28;19967;-77
2021/06/22 09:50:45;;;;;;;;;;;23.00;99.90;;;;;;5074817;28;19930;-78
2021/06/22 09:53:22;;;;;;;;;;;23.00;99.90;;;;;;5093218;28;19970;-77
2021/06/22 09:55:48;;;;;;;;;;;23.20;99.90;;;;;;5127606;27;19924;-78
2021/06/22 09:58:41;;;;;;;;;;;23.30;99.90;;;;;;5076731;28;19970;-79
2021/06/22 10:01:28;;;;;;;;;;;23.30;99.90;;;;;;5109796;28;19927;-79
2021/06/22 10:03:56;;;;;;;;;;;23.10;99.90;;;;;;5092590;28;19970;-79
2021/06/22 10:06:32;;;;;;;;;;;23.10;99.90;;;;;;5109526;28;20396;-79
2021/06/22 10:08:59;;;;;;;;;;;23.20;99.90;;;;;;5076355;28;20050;-79
2021/06/22 10:11:39;;;;;;;;;;;23.40;99.90;;;;;;5093430;28;19932;-79
2021/06/22 10:14:09;;;;;;;;;;;23.70;99.90;;;;;;5110334;28;19924;-79
2021/06/22 10:16:36;;;;;;;;;;;23.80;99.90;;;;;;5068499;28;19981;-79
2021/06/22 10:19:04;;;;;;;;;;;23.80;99.90;;;;;;5110197;28;19924;-79
2021/06/22 10:21:33;;;;;;;;;;;24.00;99.90;;;;;;5093063;28;20770;-79
2021/06/22 10:24:00;;;;;;;;;;;24.20;99.90;;;;;;5092509;28;20027;-79
2021/06/22 10:26:32;;;;;;;;;;;24.30;99.90;;;;;;5092569;28;19938;-79
2021/06/22 10:28:59;;;;;;;;;;;24.30;99.90;;;;;;5076418;28;20490;-79
2021/06/22 10:31:31;;;;;;;;;;;24.30;99.90;;;;;;5076096;28;20458;-79
2021/06/22 10:33:58;;;;;;;;;;;24.20;99.90;;;;;;5072125;28;19964;-79
2021/06/22 10:36:27;;;;;;;;;;;24.10;99.90;;;;;;5055601;28;20026;-79
2021/06/22 10:38:55;;;;;;;;;;;24.30;99.90;;;;;;5087185;28;19968;-79
2021/06/22 10:41:22;;;;;;;;;;;24.20;99.90;;;;;;5051822;28;20005;-79
2021/06/22 10:43:49;;;;;;;;;;;24.10;99.90;;;;;;5052501;28;20342;-79
2021/06/22 10:46:21;;;;;;;;;;;24.20;99.90;;;;;;5053064;28;19925;-79
2021/06/22 10:48:49;;;;;;;;;;;24.10;99.90;;;;;;5072635;28;20375;-79
2021/06/22 10:51:25;;;;;;;;;;;24.20;99.90;;;;;;5088777;28;19925;-79
2021/06/22 10:53:52;;;;;;;;;;;24.20;99.90;;;;;;5089007;28;20452;-80
2021/06/22 10:56:24;;;;;;;;;;;24.30;99.90;;;;;;5088644;28;19925;-78
2021/06/22 10:59:11;;;;;;;;;;;24.20;99.90;;;;;;5073509;28;20007;-78
2021/06/22 11:01:53;;;;;;;;;;;24.20;99.90;;;;;;5089131;28;20367;-79
2021/06/22 11:04:21;;;;;;;;;;;24.20;99.90;;;;;;5073265;28;19975;-79
2021/06/22 11:07:06;;;;;;;;;;;24.20;99.90;;;;;;5089928;28;20049;-78
2021/06/22 11:09:33;;;;;;;;;;;24.40;99.90;;;;;;5089921;28;19960;-79
2021/06/22 11:12:18;;;;;;;;;;;24.70;99.90;;;;;;5072800;28;19974;-79
2021/06/22 11:15:00;;;;;;;;;;;24.80;99.90;;;;;;5089675;28;20020;-78
2021/06/22 11:17:42;;;;;;;;;;;24.90;99.90;;;;;;5089465;28;19989;-79
2021/06/22 11:20:15;;;;;;;;;;;25.10;99.90;;;;;;5089262;28;19925;-78
2021/06/22 11:23:00;;;;;;;;;;;25.20;99.90;;;;;;5089904;28;20424;-79
2021/06/22 11:25:48;;;;;;;;;;;25.30;99.90;;;;;;5074444;28;19938;-79
2021/06/22 11:28:15;;;;;;;;;;;25.30;99.90;;;;;;5106835;28;19964;-79
2021/06/22 11:30:46;;;;;;;;;;;25.20;99.90;;;;;;5073244;28;20013;-79
2021/06/22 11:33:29;;;;;;;;;;;25.10;99.90;;;;;;5077723;28;20520;-80
2021/06/22 11:36:16;;;;;;;;;;;25.00;99.90;;;;;;5070163;28;20458;-80
2021/06/22 11:38:44;;;;;;;;;;;24.80;99.90;;;;;;5071684;28;19925;-80
2021/06/22 11:41:11;;;;;;;;;;;24.60;99.90;;;;;;5071494;28;19924;-80
2021/06/22 11:44:04;;;;;;;;;;;24.50;99.90;;;;;;5054666;28;20298;-80
2021/06/22 11:46:32;;;;;;;;;;;24.40;99.90;;;;;;5071707;28;19924;-78
2021/06/22 11:49:04;;;;;;;;;;;24.20;99.90;;;;;;5056080;28;20027;-80
2021/06/22 11:51:46;;;;;;;;;;;24.20;99.90;;;;;;5071166;28;19979;-80
2021/06/22 11:54:20;;;;;;;;;;;24.10;99.90;;;;;;5053984;28;20022;-80
2021/06/22 11:56:47;;;;;;;;;;;24.10;99.90;;;;;;5054310;28;20129;-79
2021/06/22 11:59:14;;;;;;;;;;;24.10;99.90;;;;;;5070860;28;19978;-79
2021/06/22 12:01:45;;;;;;;;;;;24.20;99.90;;;;;;5070451;28;19928;-79
2021/06/22 12:04:17;;;;;;;;;;;24.20;99.90;;;;;;5054593;28;19925;-79
2021/06/22 12:06:51;;;;;;;;;;;24.30;99.90;;;;;;5071165;28;19928;-79
2021/06/22 12:09:23;;;;;;;;;;;24.40;99.90;;;;;;5055059;28;19925;-79
2021/06/22 12:11:50;;;;;;;;;;;24.50;99.90;;;;;;5053762;28;20382;-79
2021/06/22 12:14:22;;;;;;;;;;;24.60;99.90;;;;;;5070548;28;19925;-79
2021/06/22 12:16:49;;;;;;;;;;;24.70;99.90;;;;;;5050348;28;19931;-79
2021/06/22 12:19:18;;;;;;;;;;;25.00;99.90;;;;;;5050835;28;19967;-79
2021/06/22 12:21:45;;;;;;;;;;;25.30;99.90;;;;;;5066942;28;19994;-78
2021/06/22 12:24:14;;;;;;;;;;;25.20;99.90;;;;;;5083962;28;20553;-79
2021/06/22 12:26:43;;;;;;;;;;;25.20;99.90;;;;;;5067246;28;20011;-78
2021/06/22 12:29:18;;;;;;;;;;;25.10;99.90;;;;;;5069876;28;19987;-79
2021/06/22 12:31:50;;;;;;;;;;;24.90;99.90;;;;;;5053314;28;20298;-79
2021/06/22 12:34:18;;;;;;;;;;;24.80;99.90;;;;;;5053569;28;20019;-79
2021/06/22 12:36:50;;;;;;;;;;;24.60;99.90;;;;;;5069632;28;19939;-79
2021/06/22 12:39:18;;;;;;;;;;;24.50;99.90;;;;;;5069963;28;20430;-79
2021/06/22 12:41:45;;;;;;;;;;;24.50;99.90;;;;;;5053178;28;19932;-79
2021/06/22 12:44:27;;;;;;;;;;;24.50;99.90;;;;;;5070440;28;19925;-80
2021/06/22 12:46:54;;;;;;;;;;;24.50;99.90;;;;;;5070256;28;20288;-79
2021/06/22 12:49:27;;;;;;;;;;;24.60;99.90;;;;;;5070408;28;19928;-79
2021/06/22 12:52:00;;;;;;;;;;;24.70;99.90;;;;;;5053908;28;19924;-80
2021/06/22 12:54:29;;;;;;;;;;;24.80;99.90;;;;;;5053906;28;19929;-79
2021/06/22 12:56:57;;;;;;;;;;;24.90;99.90;;;;;;5070553;28;20425;-79
2021/06/22 12:59:26;;;;;;;;;;;25.00;99.90;;;;;;5070802;28;19924;-79
2021/06/22 13:02:02;;;;;;;;;;;25.20;99.90;;;;;;5054831;28;19933;-79
2021/06/22 13:04:49;;;;;;;;;;;25.20;99.90;;;;;;5073357;28;20325;-79
2021/06/22 13:07:18;;;;;;;;;;;25.10;99.90;;;;;;5057826;28;19931;-80
2021/06/22 13:09:46;;;;;;;;;;;25.00;99.90;;;;;;5074621;28;19924;-80
2021/06/22 13:12:14;;;;;;;;;;;25.00;99.90;;;;;;5074985;28;20361;-79
2021/06/22 13:14:43;;;;;;;;;;;25.10;99.90;;;;;;5074441;28;19930;-80
2021/06/22 13:17:13;;;;;;;;;;;25.10;99.90;;;;;;5057927;28;19924;-80
2021/06/22 13:19:43;;;;;;;;;;;25.10;99.90;;;;;;5052490;28;19925;-80
2021/06/22 13:22:13;;;;;;;;;;;25.20;99.90;;;;;;5070353;28;19975;-79
2021/06/22 13:24:43;;;;;;;;;;;25.10;99.90;;;;;;5087001;28;19925;-78
2021/06/22 13:27:18;;;;;;;;;;;25.00;99.90;;;;;;5054036;28;19925;-79
2021/06/22 13:29:49;;;;;;;;;;;24.90;99.90;;;;;;5054170;28;19978;-80
2021/06/22 13:32:24;;;;;;;;;;;24.70;99.90;;;;;;5070232;28;20355;-79
2021/06/22 13:34:57;;;;;;;;;;;24.50;99.90;;;;;;5053563;28;20015;-78
2021/06/22 13:37:25;;;;;;;;;;;24.00;99.90;;;;;;5069973;28;19925;-79
2021/06/22 13:39:54;;;;;;;;;;;22.40;99.90;;;;;;5070156;28;19928;-78
2021/06/22 13:42:24;;;;;;;;;;;19.20;99.90;;;;;;5073150;28;19932;-80
2021/06/22 13:44:53;;;;;;;;;;;17.10;99.90;;;;;;5088779;28;19924;-79
2021/06/22 13:47:31;;;;;;;;;;;16.90;99.90;;;;;;5086739;28;19924;-79
2021/06/22 13:50:16;;;;;;;;;;;16.80;99.90;;;;;;5069336;28;19925;-79
2021/06/22 13:52:47;;;;;;;;;;;17.00;99.90;;;;;;5069150;28;19925;-77
2021/06/22 13:55:37;;;;;;;;;;;17.20;99.90;;;;;;5051237;28;20011;-77
2021/06/22 13:58:04;;;;;;;;;;;17.30;99.90;;;;;;5069499;28;19978;-78
2021/06/22 14:00:32;;;;;;;;;;;17.60;99.90;;;;;;5086354;28;20428;-77
2021/06/22 14:03:06;;;;;;;;;;;17.70;99.90;;;;;;5068110;28;19924;-77
2021/06/22 14:05:34;;;;;;;;;;;18.00;99.90;;;;;;5080844;28;19925;-77
2021/06/22 14:08:01;;;;;;;;;;;18.30;99.90;;;;;;5092458;28;19930;-77
2021/06/22 14:10:35;;;;;;;;;;;18.60;99.90;;;;;;5076241;28;19924;-77
2021/06/22 14:13:04;;;;;;;;;;;18.70;99.90;;;;;;5075018;28;20019;-77
2021/06/22 14:15:36;;;;;;;;;;;18.70;99.90;;;;;;5074281;28;19964;-78
2021/06/22 14:18:03;;;;;;;;;;;18.80;99.90;;;;;;5088536;28;20026;-79
2021/06/22 14:20:30;;;;;;;;;;;18.80;99.90;;;;;;5100491;28;19930;-78
2021/06/22 14:22:57;;;;;;;;;;;18.70;99.90;;;;;;5091862;28;19956;-78
2021/06/22 14:25:25;;;;;;;;;;;18.80;99.90;;;;;;5108573;28;20000;-78
2021/06/22 14:27:52;;;;;;;;;;;18.80;99.90;;;;;;5085131;28;19951;-78
2021/06/22 14:30:24;;;;;;;;;;;18.80;99.90;;;;;;5056201;28;20027;-78
2021/06/22 14:32:56;;;;;;;;;;;18.90;99.90;;;;;;5061220;28;20046;-78
2021/06/22 14:35:23;;;;;;;;;;;18.90;99.90;;;;;;5092357;28;19924;-78
2021/06/22 14:37:51;;;;;;;;;;;18.90;99.90;;;;;;5092271;28;20367;-78
2021/06/22 14:40:19;;;;;;;;;;;19.00;99.90;;;;;;5092212;28;19952;-77
2021/06/22 14:42:51;;;;;;;;;;;19.10;99.90;;;;;;5075254;28;19928;-78
2021/06/22 14:45:19;;;;;;;;;;;19.20;99.90;;;;;;5074319;28;20338;-78